Aérodrome :
LOGIN :

S'inscrire | Disclaimer

   EN    FR    IT 

 










Légende :    VFR   VFR Marginal   IFR   IFR Intensif   IFR Très Intensif
Visi : 
Plafond : 
>= 8 km
>= 3000ft
5 à 8 km
1000 à 3000 ft
1500m à 5 km
500 à 1000 ft
800 à 1500m
200 à 500 ft
< 800m
< 200 ft
Symboles :   Orages  Brouillard  Fortes neiges  Fortes précipitations  Vent > 20 kt
SIGMETs :   Divers  Orages  Givrage  Turbulence  Onde Orograph.  Cendres Volcan.







- Altitude de l'aérodrome : 622 ft
- Code IATA : BRS
- Voir les cartes d'approche


EGGD - Bristol Int.

DERNIER METAR :
  • 161520Z AUTO 19010KT 9999 BKN007 OVC016 11/09 Q1020

METARs EXPIRÉS :
  • 161450Z AUTO 19011KT 9999 BKN005 OVC017 11/10 Q1020
  • 161420Z AUTO 19012KT 9999 BKN008 OVC022 12/10 Q1020
  • 161350Z AUTO 20012KT 9999 BKN007 BKN011 OVC023 12/10 Q1020
  • 161320Z AUTO 20011KT 9999 BKN007 OVC020 11/09 Q1021
  • 161250Z AUTO 20012KT 9999 BKN007 OVC010 11/09 Q1021

TAF TAF EGGD
Valide du 16 à 12h jusqu'au 17 à 12h UTC


161102Z 1612/1712 19009KT 9999 BKN007
TEMPO 1612/1615 SCT004 BKN020
BECMG 1613/1616 BKN004
TEMPO 1615/1701 0300 FG BKN001
BECMG 1700/1703 17015G25KT FEW004
TEMPO 1709/1712 8000 BKN006
ATIS : +44 1275 473 666
Pas de NOTAMs connus pour ce terrain.



MET'MAP, la Météo Aéronautique d'un coup d'oeil ! - Copyright ORBIFLY Décembre 2007 - Disclaimer

ORBIFLY MET'MAP TEAM :

Programmation & Développement : Alexandra Zaïnal
Conception & Développement : Baudouin d'Aumeries
Co-Programmation & Développement : Marc-Olivier Méhu
Soutien technique & logistique : Manuel Goepfert

Contact : metmap@orbifly.com




SOURCES & CREDITS :

   NOAA